createdAt,value
2018-03-31T00:00:49.182Z,12
2018-03-31T00:02:09.061Z,12
2018-03-31T00:03:33.956Z,12
2018-03-31T00:04:53.778Z,11.9
2018-03-31T00:06:13.599Z,11.9
2018-03-31T00:07:33.424Z,11.9
2018-03-31T00:08:53.249Z,11.7
2018-03-31T00:10:13.066Z,11.6
2018-03-31T00:11:32.929Z,11.7
2018-03-31T00:12:52.800Z,11.7
2018-03-31T00:14:20.279Z,11.7
2018-03-31T00:15:40.156Z,11.7
2018-03-31T00:17:02.511Z,11.7
2018-03-31T00:18:22.327Z,11.8
2018-03-31T00:19:42.153Z,11.8
2018-03-31T00:21:04.525Z,11.8
2018-03-31T00:22:24.363Z,11.9
2018-03-31T00:23:56.888Z,12
2018-03-31T00:25:21.806Z,12
2018-03-31T00:26:44.219Z,12
2018-03-31T00:28:04.038Z,11.8
2018-03-31T00:29:31.494Z,11.8
2018-03-31T00:30:51.318Z,11.8
2018-03-31T00:32:16.237Z,11.6
2018-03-31T00:33:38.587Z,11.7
2018-03-31T00:35:03.514Z,11.2
2018-03-31T00:36:23.336Z,11.2
2018-03-31T00:37:50.735Z,11.1
2018-03-31T00:39:15.658Z,11.2
2018-03-31T00:40:38.008Z,11.3
2018-03-31T00:42:00.346Z,11.2
2018-03-31T00:43:20.173Z,11.3
2018-03-31T00:44:55.230Z,11.3
2018-03-31T00:46:22.684Z,11.2
2018-03-31T00:47:42.501Z,11.1
2018-03-31T00:49:09.936Z,11.2
2018-03-31T00:50:32.279Z,11.2
2018-03-31T00:51:52.144Z,11.3
2018-03-31T00:53:17.072Z,11.3
2018-03-31T00:54:39.448Z,11.1
2018-03-31T00:56:04.358Z,11.1
2018-03-31T00:57:31.815Z,11.2
2018-03-31T00:58:51.630Z,11.3
2018-03-31T01:00:11.455Z,11.3
2018-03-31T01:01:31.271Z,11.2
2018-03-31T01:02:53.678Z,11.1
2018-03-31T01:04:13.533Z,11
2018-03-31T01:05:33.348Z,11.1
2018-03-31T01:06:53.169Z,11.2
2018-03-31T01:08:25.651Z,11.1
2018-03-31T01:09:53.070Z,11.2
2018-03-31T01:11:15.420Z,11.4
2018-03-31T01:12:55.477Z,11.3
2018-03-31T01:14:15.336Z,11.2
2018-03-31T01:15:45.271Z,11.6
2018-03-31T01:17:05.098Z,11.5
2018-03-31T01:18:27.431Z,11.2
2018-03-31T01:19:54.903Z,11.2
2018-03-31T01:21:17.249Z,11.1
2018-03-31T01:22:42.177Z,11.6
2018-03-31T01:24:01.992Z,11.6
2018-03-31T01:25:31.948Z,11.5
2018-03-31T01:26:54.356Z,11.4
2018-03-31T01:28:16.704Z,11.6
2018-03-31T01:29:36.563Z,11.7
2018-03-31T01:30:56.383Z,11.4
2018-03-31T01:32:16.220Z,11.5
2018-03-31T01:33:36.040Z,11.5
2018-03-31T01:34:55.927Z,11.3
2018-03-31T01:36:20.810Z,11.3
2018-03-31T01:37:40.678Z,11.4
2018-03-31T01:39:03.055Z,11.4
2018-03-31T01:40:22.875Z,11.5
2018-03-31T01:41:42.688Z,11.4
2018-03-31T01:43:02.531Z,11.4
2018-03-31T01:44:24.886Z,11.1
2018-03-31T01:45:44.726Z,11.2
2018-03-31T01:47:07.124Z,10.8
2018-03-31T01:48:26.942Z,10.8
2018-03-31T01:49:46.773Z,10.9
2018-03-31T01:51:06.583Z,10.9
2018-03-31T01:52:28.995Z,10.9
2018-03-31T01:53:48.830Z,10.9
2018-03-31T01:55:08.648Z,10.7
2018-03-31T01:56:28.534Z,10.8
2018-03-31T01:57:53.441Z,10.7
2018-03-31T01:59:15.790Z,10.9
2018-03-31T02:00:35.608Z,11
2018-03-31T02:01:57.954Z,11
2018-03-31T02:03:20.357Z,10.9
2018-03-31T02:04:40.174Z,10.9
2018-03-31T02:05:59.996Z,10.9
2018-03-31T02:07:22.345Z,11.3
2018-03-31T02:08:49.766Z,11.3
2018-03-31T02:10:12.109Z,11.3
2018-03-31T02:11:37.049Z,11.4
2018-03-31T02:13:01.985Z,11.5
2018-03-31T02:14:21.847Z,11.3
2018-03-31T02:15:41.664Z,11.3
2018-03-31T02:17:11.596Z,11.5
2018-03-31T02:18:41.577Z,11.6
2018-03-31T02:20:03.946Z,11.6
2018-03-31T02:21:31.390Z,11.4
2018-03-31T02:22:53.753Z,11.4
2018-03-31T02:24:23.706Z,11.4
2018-03-31T02:25:43.529Z,11.3
2018-03-31T02:27:03.402Z,11.2
2018-03-31T02:28:25.760Z,11.3
2018-03-31T02:29:48.107Z,11.1
2018-03-31T02:31:10.513Z,11.2
2018-03-31T02:32:30.373Z,11.2
2018-03-31T02:33:50.207Z,11.1
2018-03-31T02:35:17.622Z,11.1
2018-03-31T02:36:42.507Z,11.4
2018-03-31T02:38:02.333Z,11.4
2018-03-31T02:39:22.152Z,11.5
2018-03-31T02:40:42.012Z,11
2018-03-31T02:42:04.421Z,11
2018-03-31T02:43:26.817Z,11.1
2018-03-31T02:44:49.209Z,11
2018-03-31T02:46:16.686Z,10.9
2018-03-31T02:47:36.537Z,10.9
2018-03-31T02:48:58.907Z,10.9
2018-03-31T02:50:21.255Z,10.8
2018-03-31T02:51:46.140Z,10.8
2018-03-31T02:53:06.007Z,10.8
2018-03-31T02:54:28.375Z,10.7
2018-03-31T02:55:48.258Z,10.6
2018-03-31T02:57:18.207Z,10.7
2018-03-31T02:58:38.028Z,10.6
2018-03-31T02:59:57.844Z,10.6
2018-03-31T03:01:25.264Z,10.6
2018-03-31T03:02:45.085Z,10.5
2018-03-31T03:04:09.965Z,10.5
2018-03-31T03:05:37.377Z,10.4
2018-03-31T03:06:59.748Z,10.6
2018-03-31T03:08:19.571Z,10.4
2018-03-31T03:09:44.523Z,10.3
2018-03-31T03:11:04.370Z,10.5
2018-03-31T03:12:29.294Z,10.4
2018-03-31T03:13:49.137Z,10.5
2018-03-31T03:15:11.476Z,10.3
2018-03-31T03:16:33.845Z,10.4
2018-03-31T03:17:53.710Z,10.4
2018-03-31T03:19:13.592Z,10.4
2018-03-31T03:20:33.422Z,10.4
2018-03-31T03:21:53.262Z,10.3
2018-03-31T03:23:13.139Z,10.4
2018-03-31T03:24:38.011Z,10.4
2018-03-31T03:25:57.876Z,10.6
2018-03-31T03:27:17.687Z,10.5
2018-03-31T03:28:40.060Z,10.6
2018-03-31T03:30:02.406Z,10.5
2018-03-31T03:31:27.293Z,10.3
2018-03-31T03:32:47.162Z,10.5
2018-03-31T03:34:19.629Z,10.3
2018-03-31T03:35:39.454Z,10.4
2018-03-31T03:36:59.312Z,10.2
2018-03-31T03:38:19.223Z,10.3
2018-03-31T03:39:39.126Z,10.4
2018-03-31T03:41:01.481Z,10.4
2018-03-31T03:42:23.890Z,10.4
2018-03-31T03:43:43.744Z,10.5
2018-03-31T03:45:03.593Z,10.6
2018-03-31T03:46:25.934Z,10.6
2018-03-31T03:47:50.805Z,11.1
2018-03-31T03:49:18.211Z,11
2018-03-31T03:50:40.646Z,10.9
2018-03-31T03:52:00.478Z,10.9
2018-03-31T03:53:27.883Z,10.9
2018-03-31T03:54:47.773Z,10.9
2018-03-31T03:56:12.671Z,11
2018-03-31T03:57:35.030Z,11.2
2018-03-31T03:58:54.845Z,11.1
2018-03-31T04:00:19.718Z,11
2018-03-31T04:01:42.065Z,11.2
2018-03-31T04:03:01.912Z,11.2
2018-03-31T04:04:26.790Z,11.1
2018-03-31T04:05:49.171Z,10.9
2018-03-31T04:07:11.521Z,11.1
2018-03-31T04:08:44.067Z,11
2018-03-31T04:10:03.957Z,10.9
2018-03-31T04:11:31.417Z,10.9
2018-03-31T04:12:53.789Z,11
2018-03-31T04:14:13.633Z,10.9
2018-03-31T04:15:36.009Z,11
2018-03-31T04:16:55.823Z,11.1
2018-03-31T04:18:15.644Z,11.2
2018-03-31T04:19:43.038Z,11.2
2018-03-31T04:21:13.025Z,11
2018-03-31T04:22:40.481Z,10.8
2018-03-31T04:24:02.904Z,11
2018-03-31T04:25:25.262Z,11.2
2018-03-31T04:26:45.081Z,11
2018-03-31T04:28:04.942Z,10.9
2018-03-31T04:29:24.751Z,10.9
2018-03-31T04:30:59.776Z,11.2
2018-03-31T04:32:19.598Z,11.1
2018-03-31T04:33:47.000Z,11.1
2018-03-31T04:35:09.393Z,11.1
2018-03-31T04:36:29.236Z,11.1
2018-03-31T04:37:49.124Z,11.1
2018-03-31T04:39:19.082Z,11.1
2018-03-31T04:40:38.943Z,11.1
2018-03-31T04:42:01.299Z,11.1
2018-03-31T04:43:33.801Z,11.1
2018-03-31T04:44:53.647Z,11.1
2018-03-31T04:46:13.540Z,11.1
2018-03-31T04:47:33.383Z,11.1
2018-03-31T04:48:58.313Z,10.9
2018-03-31T04:50:20.663Z,10.9
2018-03-31T04:51:43.007Z,11
2018-03-31T04:53:02.881Z,11.2
2018-03-31T04:54:25.291Z,11.2
2018-03-31T04:55:45.101Z,11
2018-03-31T04:57:04.909Z,11
2018-03-31T04:58:27.282Z,10.9
2018-03-31T04:59:52.153Z,11
2018-03-31T05:01:12.013Z,11.1
2018-03-31T05:02:31.830Z,11
2018-03-31T05:03:51.695Z,11.2
2018-03-31T05:05:14.059Z,11.1
2018-03-31T05:06:33.915Z,11.2
2018-03-31T05:07:53.761Z,11.2
2018-03-31T05:09:18.677Z,11.1
2018-03-31T05:10:38.544Z,11.1
2018-03-31T05:12:03.461Z,11.1
2018-03-31T05:13:33.480Z,11.1
2018-03-31T05:14:53.351Z,11.1
2018-03-31T05:16:13.219Z,11.3
2018-03-31T05:17:43.202Z,11.2
2018-03-31T05:19:03.062Z,11.1
2018-03-31T05:20:25.411Z,11.1
2018-03-31T05:21:50.294Z,11.2
2018-03-31T05:23:10.165Z,11.2
2018-03-31T05:24:32.530Z,11.1
2018-03-31T05:25:52.345Z,11.1
2018-03-31T05:27:14.694Z,11
2018-03-31T05:28:37.033Z,11
2018-03-31T05:29:56.853Z,11
2018-03-31T05:31:24.279Z,11
2018-03-31T05:32:46.648Z,11
2018-03-31T05:34:06.500Z,11
2018-03-31T05:35:26.319Z,11.2
2018-03-31T05:36:46.133Z,11.4
2018-03-31T05:38:11.023Z,11.5
2018-03-31T05:39:30.847Z,11.7
2018-03-31T05:40:50.677Z,11.7
2018-03-31T05:42:15.589Z,11.4
2018-03-31T05:43:37.957Z,11.4
2018-03-31T05:44:57.777Z,11.4
2018-03-31T05:46:17.629Z,11.3
2018-03-31T05:47:37.440Z,11.4
2018-03-31T05:48:57.258Z,11.5
2018-03-31T05:50:22.189Z,11.5
2018-03-31T05:51:44.555Z,11.6
2018-03-31T05:53:11.967Z,11.5
2018-03-31T05:54:31.790Z,11.7
2018-03-31T05:55:59.204Z,11.6
2018-03-31T05:57:24.128Z,11.5
2018-03-31T05:58:46.473Z,11.4
2018-03-31T06:00:08.835Z,11.2
2018-03-31T06:01:31.179Z,11.5
2018-03-31T06:03:03.681Z,11.7
2018-03-31T06:04:26.036Z,12.2
2018-03-31T06:05:48.461Z,12.6
2018-03-31T06:07:08.303Z,12.7
2018-03-31T06:08:30.658Z,12.9
2018-03-31T06:09:50.468Z,12.9
2018-03-31T06:11:10.285Z,13.2
2018-03-31T06:12:35.221Z,13.2
2018-03-31T06:13:55.040Z,13.3
2018-03-31T06:15:19.924Z,13.6
2018-03-31T06:16:39.762Z,13.7
2018-03-31T06:18:02.110Z,13.4
2018-03-31T06:19:29.566Z,14
2018-03-31T06:20:51.935Z,14
2018-03-31T06:22:11.751Z,14
2018-03-31T06:23:39.174Z,14.1
2018-03-31T06:25:01.565Z,14
2018-03-31T06:26:21.456Z,13.9
2018-03-31T06:27:41.280Z,14.3
2018-03-31T06:29:03.673Z,14.6
2018-03-31T06:30:26.034Z,14.2
2018-03-31T06:31:53.478Z,14
2018-03-31T06:33:13.373Z,13.9
2018-03-31T06:34:38.272Z,13.6
2018-03-31T06:35:58.170Z,13.7
2018-03-31T06:37:18.039Z,13.5
2018-03-31T06:38:37.880Z,13.5
2018-03-31T06:39:57.715Z,13.3
2018-03-31T06:41:17.525Z,13.3
2018-03-31T06:42:37.425Z,13.4
2018-03-31T06:43:57.297Z,13.5
2018-03-31T06:45:19.649Z,13.4
2018-03-31T06:46:47.087Z,13.2
2018-03-31T06:48:12.043Z,13.2
2018-03-31T06:49:34.454Z,13.1
2018-03-31T06:50:54.311Z,13.1
2018-03-31T06:52:29.320Z,13.1
2018-03-31T06:53:54.248Z,12.9
2018-03-31T06:55:14.059Z,12.9
2018-03-31T06:56:38.933Z,12.9
2018-03-31T06:58:16.500Z,12.8
2018-03-31T06:59:46.497Z,12.6
2018-03-31T07:01:06.312Z,12.7
2018-03-31T07:02:33.724Z,12.7
2018-03-31T07:03:53.584Z,12.5
2018-03-31T07:05:15.966Z,12.4
2018-03-31T07:06:38.389Z,12.4
2018-03-31T07:07:58.259Z,12.3
2018-03-31T07:09:18.101Z,12.3
2018-03-31T07:10:43.008Z,12.2
2018-03-31T07:12:02.890Z,12.2
2018-03-31T07:13:22.740Z,12.1
2018-03-31T07:14:45.132Z,12.1
2018-03-31T07:16:10.047Z,12
2018-03-31T07:17:29.855Z,12
2018-03-31T07:18:49.671Z,12
2018-03-31T07:20:09.485Z,12
2018-03-31T07:21:29.296Z,12
2018-03-31T07:23:01.817Z,12
2018-03-31T07:24:21.646Z,12
2018-03-31T07:25:41.458Z,11.9
2018-03-31T07:27:06.428Z,11.9
2018-03-31T07:28:26.253Z,12
2018-03-31T07:29:48.604Z,11.8
2018-03-31T07:31:10.982Z,11.7
2018-03-31T07:32:35.857Z,11.8
2018-03-31T07:33:58.225Z,11.8
2018-03-31T07:35:18.094Z,11.7
2018-03-31T07:36:37.986Z,11.8
2018-03-31T07:38:08.005Z,11.9
2018-03-31T07:39:27.843Z,11.8
2018-03-31T07:40:47.711Z,11.8
2018-03-31T07:42:15.216Z,11.8
2018-03-31T07:43:42.662Z,11.9
2018-03-31T07:45:02.500Z,11.8
2018-03-31T07:46:27.407Z,11.9
2018-03-31T07:47:52.349Z,12.1
2018-03-31T07:49:17.238Z,12.2
2018-03-31T07:50:37.115Z,12.4
2018-03-31T07:52:14.641Z,12.5
2018-03-31T07:53:34.498Z,12.4
2018-03-31T07:54:54.307Z,12.7
2018-03-31T07:56:14.162Z,12.4
2018-03-31T07:57:41.633Z,12.6
2018-03-31T07:59:03.997Z,12.7
2018-03-31T08:00:23.825Z,13.1
2018-03-31T08:01:48.704Z,13.2
2018-03-31T08:03:08.630Z,13.6
2018-03-31T08:04:36.039Z,13.7
2018-03-31T08:05:55.859Z,13.7
2018-03-31T08:07:15.691Z,13.8
2018-03-31T08:08:35.505Z,14.2
2018-03-31T08:09:57.920Z,14.3
2018-03-31T08:11:17.803Z,14.5
2018-03-31T08:12:40.148Z,14.7
2018-03-31T08:14:02.549Z,14.8
2018-03-31T08:15:27.496Z,15.1
2018-03-31T08:16:49.840Z,15.2
2018-03-31T08:18:12.197Z,15.1
2018-03-31T08:19:32.030Z,15.2
2018-03-31T08:20:51.901Z,15
2018-03-31T08:22:11.717Z,15.3
2018-03-31T08:23:36.586Z,15.4
2018-03-31T08:24:56.404Z,15
2018-03-31T08:26:18.808Z,15
2018-03-31T08:27:46.255Z,14.6
2018-03-31T08:29:06.073Z,14.8
2018-03-31T08:30:33.552Z,14.4
2018-03-31T08:31:53.411Z,14.2
2018-03-31T08:33:18.292Z,14
2018-03-31T08:34:43.174Z,14.1
2018-03-31T08:36:03.015Z,14.1
2018-03-31T08:37:22.891Z,13.8
2018-03-31T08:38:42.730Z,13.8
2018-03-31T08:40:07.638Z,13.6
2018-03-31T08:41:27.505Z,13.9
2018-03-31T08:43:02.535Z,13.9
2018-03-31T08:44:22.395Z,13.8
2018-03-31T08:45:42.236Z,13.9
2018-03-31T08:47:02.154Z,14.1
2018-03-31T08:48:21.988Z,13.9
2018-03-31T08:49:46.947Z,13.6
2018-03-31T08:51:06.815Z,13.7
2018-03-31T08:52:29.216Z,13.6
2018-03-31T08:53:49.039Z,13.8
2018-03-31T08:55:11.384Z,13.8
2018-03-31T08:56:31.211Z,13.7
2018-03-31T08:57:53.549Z,13.8
2018-03-31T08:59:15.943Z,13.9
2018-03-31T09:00:40.877Z,13.8
2018-03-31T09:02:05.748Z,13.9
2018-03-31T09:03:25.590Z,14.1
2018-03-31T09:04:50.505Z,13.9
2018-03-31T09:06:10.374Z,13.7
2018-03-31T09:07:40.302Z,13.9
2018-03-31T09:09:02.719Z,13.8
2018-03-31T09:10:22.571Z,13.9
2018-03-31T09:11:49.978Z,13.8
2018-03-31T09:13:12.375Z,13.8
2018-03-31T09:14:42.348Z,13.7
2018-03-31T09:16:04.710Z,13.8
2018-03-31T09:17:27.086Z,13.9
2018-03-31T09:18:49.426Z,13.9
2018-03-31T09:20:09.247Z,13.7
2018-03-31T09:21:41.717Z,13.5
2018-03-31T09:23:04.073Z,13.4
2018-03-31T09:24:23.952Z,13.2
2018-03-31T09:25:56.407Z,13.2
2018-03-31T09:27:18.762Z,13.3
2018-03-31T09:28:38.631Z,13.5
2018-03-31T09:29:58.494Z,13.3
2018-03-31T09:31:18.319Z,13.3
2018-03-31T09:32:48.268Z,13.3
2018-03-31T09:34:10.613Z,13.3
2018-03-31T09:35:32.966Z,13.3
2018-03-31T09:36:55.319Z,13.3
2018-03-31T09:38:17.694Z,13.4
2018-03-31T09:39:37.537Z,13.2
2018-03-31T09:40:57.384Z,13.1
2018-03-31T09:42:17.251Z,13.1
2018-03-31T09:43:37.095Z,13.1
2018-03-31T09:44:56.978Z,13.1
2018-03-31T09:46:21.861Z,13.1
2018-03-31T09:47:44.217Z,13.2
2018-03-31T09:49:11.661Z,13.2
2018-03-31T09:50:36.596Z,13.1
2018-03-31T09:51:56.411Z,13.2
2018-03-31T09:53:16.282Z,13.2
2018-03-31T09:54:36.146Z,13.4
2018-03-31T09:56:06.081Z,13.3
2018-03-31T09:57:25.952Z,13.3
2018-03-31T09:58:45.780Z,13.1
2018-03-31T10:00:05.615Z,13.2
2018-03-31T10:01:25.461Z,13.5
2018-03-31T10:02:47.856Z,13.5
2018-03-31T10:04:07.706Z,13.2
2018-03-31T10:05:30.053Z,13.2
2018-03-31T10:06:57.488Z,13.4
2018-03-31T10:08:22.387Z,13.4
2018-03-31T10:09:49.805Z,13.5
2018-03-31T10:11:09.621Z,13.5
2018-03-31T10:12:32.036Z,13.3
2018-03-31T10:13:54.444Z,13.5
2018-03-31T10:15:14.284Z,13.7
2018-03-31T10:16:34.165Z,13.9
2018-03-31T10:17:59.055Z,14.1
2018-03-31T10:19:18.867Z,14.4
2018-03-31T10:20:43.804Z,14.5
2018-03-31T10:22:06.178Z,14.8
2018-03-31T10:23:38.706Z,14.8
2018-03-31T10:24:58.531Z,14.7
2018-03-31T10:26:38.657Z,15
2018-03-31T10:28:03.528Z,15
2018-03-31T10:29:28.437Z,14.4
2018-03-31T10:30:50.788Z,14.7
2018-03-31T10:32:10.607Z,14.3
2018-03-31T10:33:32.956Z,14.4
2018-03-31T10:34:52.795Z,15.1
2018-03-31T10:36:12.642Z,15.1
2018-03-31T10:37:32.508Z,15.4
2018-03-31T10:38:52.397Z,15.3
2018-03-31T10:40:12.233Z,15.1
2018-03-31T10:41:34.624Z,14.8
2018-03-31T10:42:54.491Z,14.9
2018-03-31T10:44:19.368Z,15.3
2018-03-31T10:45:44.250Z,15.4
2018-03-31T10:47:04.089Z,15.2
2018-03-31T10:48:31.483Z,14.9
2018-03-31T10:49:51.381Z,15
2018-03-31T10:51:13.723Z,14.9
2018-03-31T10:52:43.675Z,14.7
2018-03-31T10:54:03.529Z,14.7
2018-03-31T10:55:30.951Z,14.4
2018-03-31T10:56:53.299Z,14.4
2018-03-31T10:58:20.768Z,14.3
2018-03-31T10:59:43.115Z,14
2018-03-31T11:01:02.998Z,13.9
2018-03-31T11:02:22.816Z,13.7
2018-03-31T11:03:52.801Z,13.8
2018-03-31T11:05:12.618Z,13.8
2018-03-31T11:06:32.458Z,13.7
2018-03-31T11:07:59.932Z,13.6
2018-03-31T11:09:22.306Z,13.6
2018-03-31T11:10:47.256Z,13.6
2018-03-31T11:12:07.096Z,13.6
2018-03-31T11:13:29.498Z,13.5
2018-03-31T11:14:59.452Z,13.4
2018-03-31T11:16:19.323Z,13.5
2018-03-31T11:17:39.145Z,13.5
2018-03-31T11:19:06.579Z,13.3
2018-03-31T11:20:41.617Z,13.2
2018-03-31T11:22:01.480Z,13.2
2018-03-31T11:23:21.301Z,13.1
2018-03-31T11:24:41.170Z,13.1
2018-03-31T11:26:01.005Z,13.3
2018-03-31T11:27:20.822Z,13.3
2018-03-31T11:28:40.641Z,13.4
2018-03-31T11:30:03.014Z,13.2
2018-03-31T11:31:30.419Z,13.1
2018-03-31T11:32:50.284Z,13
2018-03-31T11:34:10.095Z,12.9
2018-03-31T11:35:34.970Z,13
2018-03-31T11:36:54.795Z,13
2018-03-31T11:38:14.612Z,12.9
2018-03-31T11:39:34.434Z,12.8
2018-03-31T11:40:54.262Z,12.7
2018-03-31T11:42:21.725Z,12.7
2018-03-31T11:43:41.616Z,12.7
2018-03-31T11:45:06.521Z,12.6
2018-03-31T11:46:26.408Z,12.6
2018-03-31T11:47:46.244Z,12.5
2018-03-31T11:49:06.130Z,12.6
2018-03-31T11:50:28.514Z,12.5
2018-03-31T11:51:48.326Z,12.8
2018-03-31T11:53:08.209Z,12.7
2018-03-31T11:54:28.028Z,12.6
2018-03-31T11:55:47.852Z,12.7
2018-03-31T11:57:07.667Z,12.7
2018-03-31T11:58:30.031Z,12.6
2018-03-31T11:59:49.887Z,12.6
2018-03-31T12:01:09.699Z,12.6
2018-03-31T12:02:29.507Z,12.6
2018-03-31T12:03:51.880Z,12.6
2018-03-31T12:05:11.726Z,12.8
2018-03-31T12:06:34.081Z,12.6
2018-03-31T12:07:53.891Z,12.5
2018-03-31T12:09:13.707Z,12.6
2018-03-31T12:10:33.519Z,12.9
2018-03-31T12:11:58.446Z,13.2
2018-03-31T12:13:18.269Z,12.8
2018-03-31T12:14:43.183Z,12.5
2018-03-31T12:16:02.994Z,12.9
2018-03-31T12:17:22.841Z,12.9
2018-03-31T12:19:02.920Z,12.5
2018-03-31T12:20:25.264Z,12.5
2018-03-31T12:21:45.130Z,12.7
2018-03-31T12:23:10.051Z,12.9
2018-03-31T12:24:29.900Z,12.9
2018-03-31T12:25:49.733Z,13.4
2018-03-31T12:27:09.552Z,13.1
2018-03-31T12:28:32.039Z,12.9
2018-03-31T12:30:04.547Z,12.8
2018-03-31T12:31:26.976Z,13
2018-03-31T12:32:49.356Z,13.2
2018-03-31T12:34:11.725Z,13
2018-03-31T12:35:36.646Z,13.1
2018-03-31T12:37:01.542Z,13.1
2018-03-31T12:38:21.391Z,13.1
2018-03-31T12:39:41.283Z,13.1
2018-03-31T12:41:06.193Z,12.8
2018-03-31T12:42:28.588Z,12.6
2018-03-31T12:43:55.990Z,12.7
2018-03-31T12:45:38.625Z,13
2018-03-31T12:47:08.574Z,13.3
2018-03-31T12:48:28.389Z,13.3
2018-03-31T12:50:03.417Z,13.1
2018-03-31T12:51:25.789Z,12.6
2018-03-31T12:52:55.725Z,12.6
2018-03-31T12:54:15.552Z,12.6
2018-03-31T12:55:42.953Z,13.1
2018-03-31T12:57:02.808Z,12.8
2018-03-31T12:58:35.301Z,13.6
2018-03-31T13:00:02.709Z,14
2018-03-31T13:01:22.540Z,14.1
2018-03-31T13:02:42.368Z,14.2
2018-03-31T13:04:07.244Z,14
2018-03-31T13:05:29.606Z,14.1
2018-03-31T13:06:54.484Z,14.3
2018-03-31T13:08:14.299Z,14.2
2018-03-31T13:09:36.715Z,14.4
2018-03-31T13:10:56.556Z,14.9
2018-03-31T13:12:24.017Z,14.9
2018-03-31T13:13:46.450Z,14.8
2018-03-31T13:15:16.415Z,15.1
2018-03-31T13:16:36.260Z,14.7
2018-03-31T13:18:01.186Z,15
2018-03-31T13:19:23.523Z,14.7
2018-03-31T13:20:45.865Z,14.9
2018-03-31T13:22:08.279Z,14.8
2018-03-31T13:23:28.091Z,14.7
2018-03-31T13:24:47.908Z,14.4
2018-03-31T13:26:12.776Z,14.3
2018-03-31T13:27:32.643Z,14.3
2018-03-31T13:28:54.996Z,14.9
2018-03-31T13:30:14.841Z,15
2018-03-31T13:31:34.656Z,15
2018-03-31T13:32:54.506Z,14.8
2018-03-31T13:34:14.325Z,14.5
2018-03-31T13:35:36.710Z,14.5
2018-03-31T13:36:59.056Z,14.5
2018-03-31T13:38:18.873Z,14.6
2018-03-31T13:39:51.368Z,14.6
2018-03-31T13:41:13.710Z,14.5
2018-03-31T13:42:33.567Z,14.5
2018-03-31T13:43:53.381Z,14.3
2018-03-31T13:45:13.259Z,14.3
2018-03-31T13:46:33.070Z,14.3
2018-03-31T13:48:00.525Z,14.3
2018-03-31T13:49:32.984Z,14.1
2018-03-31T13:51:00.385Z,14
2018-03-31T13:52:30.326Z,14.1
2018-03-31T13:53:57.732Z,14
2018-03-31T13:55:20.088Z,13.8
2018-03-31T13:56:39.951Z,14
2018-03-31T13:58:12.452Z,14
2018-03-31T13:59:32.301Z,13.7
2018-03-31T14:00:52.127Z,13.7
2018-03-31T14:02:14.471Z,13.7
2018-03-31T14:03:54.507Z,13.6
2018-03-31T14:05:16.902Z,13.6
2018-03-31T14:06:36.780Z,13.6
2018-03-31T14:07:56.629Z,13.5
2018-03-31T14:09:16.525Z,13.3
2018-03-31T14:10:41.461Z,13.4
2018-03-31T14:12:01.321Z,13.4
2018-03-31T14:13:23.714Z,13.6
2018-03-31T14:14:43.547Z,13.5
2018-03-31T14:16:11.035Z,13.4
2018-03-31T14:17:30.927Z,13.2
2018-03-31T14:19:03.392Z,13.1
2018-03-31T14:20:25.770Z,13.2
2018-03-31T14:21:48.114Z,13.1
2018-03-31T14:23:07.964Z,13.2
2018-03-31T14:24:30.347Z,13.2
2018-03-31T14:25:52.695Z,13.2
2018-03-31T14:27:12.536Z,13.1
2018-03-31T14:28:32.395Z,13.1
2018-03-31T14:29:54.761Z,13.2
2018-03-31T14:31:14.627Z,13.2
2018-03-31T14:32:39.542Z,13
2018-03-31T14:34:09.535Z,13.1
2018-03-31T14:35:34.422Z,13
2018-03-31T14:36:59.336Z,13.2
2018-03-31T14:38:21.692Z,13.1
2018-03-31T14:39:41.544Z,13
2018-03-31T14:41:06.503Z,13.1
2018-03-31T14:42:26.359Z,13.1
2018-03-31T14:43:46.207Z,13.2
2018-03-31T14:45:06.051Z,13.2
2018-03-31T14:46:28.405Z,13.3
2018-03-31T14:47:53.277Z,13.3
2018-03-31T14:49:15.644Z,13.5
2018-03-31T14:50:37.996Z,13.5
2018-03-31T14:51:57.818Z,13.4
2018-03-31T14:53:20.172Z,13.4
2018-03-31T14:54:42.532Z,13.5
2018-03-31T14:56:09.975Z,13.5
2018-03-31T14:57:32.339Z,13.5
2018-03-31T14:58:52.164Z,13.4
2018-03-31T15:00:11.991Z,13.4
2018-03-31T15:01:34.387Z,13.3
2018-03-31T15:02:54.207Z,13.4
2018-03-31T15:04:14.043Z,13.4
2018-03-31T15:05:36.424Z,13.6
2018-03-31T15:06:56.319Z,13.8
2018-03-31T15:08:23.775Z,13.5
2018-03-31T15:09:48.690Z,13.2
2018-03-31T15:11:08.506Z,13.4
2018-03-31T15:12:30.932Z,13.6
2018-03-31T15:14:00.901Z,13.4
2018-03-31T15:15:20.746Z,13.5
2018-03-31T15:16:40.589Z,13.4
2018-03-31T15:18:05.472Z,13.2
2018-03-31T15:19:25.314Z,13.3
2018-03-31T15:20:47.716Z,13.3
2018-03-31T15:22:07.597Z,13.2
2018-03-31T15:23:27.409Z,13.1
2018-03-31T15:24:47.228Z,13.1
2018-03-31T15:26:17.220Z,13.2
2018-03-31T15:27:39.571Z,13.2
2018-03-31T15:28:59.446Z,13.1
2018-03-31T15:30:19.261Z,13.1
2018-03-31T15:31:39.114Z,13
2018-03-31T15:32:58.927Z,12.8
2018-03-31T15:34:21.344Z,12.8
2018-03-31T15:35:46.294Z,12.7
2018-03-31T15:37:06.160Z,12.7
2018-03-31T15:38:26.002Z,12.7
2018-03-31T15:39:48.373Z,12.7
2018-03-31T15:41:25.915Z,12.6
2018-03-31T15:42:45.755Z,12.7
2018-03-31T15:44:08.150Z,12.6
2018-03-31T15:45:27.967Z,12.7
2018-03-31T15:46:52.836Z,12.8
2018-03-31T15:48:15.176Z,12.6
2018-03-31T15:49:35.052Z,12.9
2018-03-31T15:51:05.003Z,12.8
2018-03-31T15:52:24.820Z,12.6
2018-03-31T15:53:52.234Z,12.7
2018-03-31T15:55:12.069Z,12.8
2018-03-31T15:56:34.422Z,12.8
2018-03-31T15:57:56.766Z,12.9
2018-03-31T15:59:24.179Z,13.1
2018-03-31T16:00:51.626Z,13.2
2018-03-31T16:02:11.445Z,12.9
2018-03-31T16:03:31.282Z,12.8
2018-03-31T16:04:53.634Z,12.7
2018-03-31T16:06:21.061Z,12.7
2018-03-31T16:07:45.993Z,12.9
2018-03-31T16:09:08.343Z,13.3
2018-03-31T16:10:33.216Z,13.5
2018-03-31T16:11:53.067Z,13.9
2018-03-31T16:13:15.451Z,13.6
2018-03-31T16:14:35.331Z,13.8
2018-03-31T16:15:55.180Z,13.9
2018-03-31T16:17:20.084Z,13.9
2018-03-31T16:18:39.950Z,13.7
2018-03-31T16:19:59.767Z,14
2018-03-31T16:21:27.230Z,14.1
2018-03-31T16:22:47.043Z,14.2
2018-03-31T16:24:09.438Z,13.7
2018-03-31T16:25:29.258Z,13.8
2018-03-31T16:26:49.110Z,14.2
2018-03-31T16:28:08.929Z,13.9
2018-03-31T16:29:28.746Z,13.8
2018-03-31T16:30:51.135Z,13.6
2018-03-31T16:32:11.038Z,14.2
2018-03-31T16:33:33.421Z,14.1
2018-03-31T16:34:53.296Z,14
2018-03-31T16:36:15.677Z,14.3
2018-03-31T16:37:35.524Z,14
2018-03-31T16:39:08.018Z,14.2
2018-03-31T16:40:27.875Z,14.5
2018-03-31T16:41:50.243Z,14.3
2018-03-31T16:43:17.649Z,14.3
2018-03-31T16:44:37.526Z,14.3
2018-03-31T16:46:12.532Z,14.2
2018-03-31T16:47:32.354Z,14.3
2018-03-31T16:48:52.167Z,14.2
2018-03-31T16:50:17.072Z,14.1
2018-03-31T16:51:39.438Z,14
2018-03-31T16:53:06.843Z,14.2
2018-03-31T16:54:36.802Z,13.9
2018-03-31T16:55:56.616Z,13.8
2018-03-31T16:57:21.540Z,14
2018-03-31T16:58:41.372Z,14
2018-03-31T17:00:08.790Z,13.8
2018-03-31T17:01:31.137Z,14
2018-03-31T17:02:53.511Z,13.7
2018-03-31T17:04:13.371Z,13.7
2018-03-31T17:05:33.212Z,13.5
2018-03-31T17:06:55.605Z,13.4
2018-03-31T17:08:20.513Z,13.4
2018-03-31T17:09:42.862Z,13.4
2018-03-31T17:11:02.738Z,13.5
2018-03-31T17:12:22.652Z,13.3
2018-03-31T17:13:45.010Z,13.5
2018-03-31T17:15:04.831Z,13.3
2018-03-31T17:16:24.688Z,13.1
2018-03-31T17:17:57.178Z,13.1
2018-03-31T17:19:24.586Z,13.1
2018-03-31T17:20:46.932Z,12.9
2018-03-31T17:22:11.806Z,13
2018-03-31T17:23:36.738Z,13
2018-03-31T17:24:59.083Z,13
2018-03-31T17:26:24.022Z,12.8
2018-03-31T17:27:46.367Z,12.9
2018-03-31T17:29:08.706Z,12.9
2018-03-31T17:30:46.233Z,12.9
2018-03-31T17:32:26.281Z,12.9
2018-03-31T17:33:46.097Z,12.9
2018-03-31T17:35:08.441Z,12.7
2018-03-31T17:36:38.450Z,12.6
2018-03-31T17:38:08.401Z,12.7
2018-03-31T17:39:28.217Z,12.7
2018-03-31T17:40:53.097Z,12.8
2018-03-31T17:42:18.032Z,12.7
2018-03-31T17:43:42.901Z,12.6
2018-03-31T17:45:02.732Z,12.7
2018-03-31T17:46:22.542Z,12.8
2018-03-31T17:47:47.464Z,13
2018-03-31T17:49:07.344Z,13
2018-03-31T17:50:27.169Z,13.1
2018-03-31T17:51:46.994Z,13.2
2018-03-31T17:53:06.814Z,13.3
2018-03-31T17:54:26.628Z,13.3
2018-03-31T17:55:46.455Z,13.2
2018-03-31T17:57:06.267Z,13.2
2018-03-31T17:58:31.169Z,13.1
2018-03-31T17:59:53.575Z,13.2
2018-03-31T18:01:13.380Z,13.3
2018-03-31T18:02:35.759Z,13.2
2018-03-31T18:03:55.623Z,13.3
2018-03-31T18:05:25.645Z,13.2
2018-03-31T18:06:55.599Z,13.1
2018-03-31T18:08:15.442Z,13.1
2018-03-31T18:09:47.939Z,13.2
2018-03-31T18:11:07.754Z,13.3
2018-03-31T18:12:32.621Z,13.2
2018-03-31T18:13:52.449Z,13.2
2018-03-31T18:15:14.870Z,13.1
2018-03-31T18:16:34.744Z,13.2
2018-03-31T18:17:54.576Z,13.1
2018-03-31T18:19:14.450Z,13.2
2018-03-31T18:20:36.790Z,13.2
2018-03-31T18:21:56.617Z,13.1
2018-03-31T18:23:16.474Z,13.1
2018-03-31T18:24:38.821Z,13.2
2018-03-31T18:26:01.172Z,13.1
2018-03-31T18:27:26.088Z,13.1
2018-03-31T18:28:45.974Z,13.1
2018-03-31T18:30:05.844Z,13